Weedhaven, Texas
Current Conditions -  °F | °C
As of 7:55 PM on Friday 24 Oct 2014 (Local Time) from KPKV Reporting Station
Clear Clear  
Wind Chill: 71°   Ceiling: Unl
Heat Index: 71°   Visibility: 10mi
Dew Point: 62°   Wind: 6mph
Humidity: 73%   Direction: 130°SE
Pressure: 30.11"   Gusts: NA
Location:  28.5342°N, 96.663°W
Report Text: KPKV 250055Z AUTO 13005KT 10SM CLR 22/17 A3011 RMK AO2 T02160165
Loading
Personal Weather Stations






























Interactive Weather Map
Tropical Storm Tracking
New forecast layout! Learn more

10-Day Weather Forecast

Advertisements
Track Severe Weather on mobile